Time;durP1;ratioP1;P1;durP2;ratioP2;P2;SDS_P1;SDS_P2;PMS_P1;PMS_P2;Temp;Humidity;BMP_temperature;BMP_pressure;BME280_temperature;BME280_humidity;BME280_pressure;Samples;Min_cycle;Max_cycle;Signal;HPM_P1;HPM_P2
2021/03/18 00:01:25;;;;;;;3.77;3.20;;;;;;;3.33;60.72;99697.50;5093410;28;38718;-74
2021/03/18 00:03:53;;;;;;;3.87;2.83;;;;;;;3.25;61.04;99698.50;5110236;28;42245;-76
2021/03/18 00:06:20;;;;;;;5.50;3.60;;;;;;;3.03;61.07;99673.63;5110211;28;42766;-76
2021/03/18 00:08:48;;;;;;;4.63;3.20;;;;;;;3.02;61.34;99692.84;5109991;28;41976;-76
2021/03/18 00:11:18;;;;;;;6.83;3.43;;;;;;;2.93;62.59;99679.94;5109693;28;40656;-75
2021/03/18 00:13:46;;;;;;;4.27;3.07;;;;;;;2.83;62.59;99681.88;5109591;28;42251;-75
2021/03/18 00:16:14;;;;;;;4.80;3.43;;;;;;;2.74;62.48;99671.53;5110044;28;42683;-76
2021/03/18 00:18:45;;;;;;;5.57;3.30;;;;;;;2.64;62.59;99677.84;5109231;28;42028;-75
2021/03/18 00:21:14;;;;;;;5.00;3.53;;;;;;;2.47;63.36;99661.59;5109848;28;40639;-75
2021/03/18 00:23:41;;;;;;;5.17;3.10;;;;;;;2.41;62.57;99667.78;5111313;27;41669;-76
2021/03/18 00:26:08;;;;;;;3.00;2.73;;;;;;;2.40;62.62;99681.72;5111690;27;42577;-76
2021/03/18 00:28:44;;;;;;;6.57;3.10;;;;;;;2.32;62.80;99681.00;5109860;28;42712;-76
2021/03/18 00:31:11;;;;;;;3.93;2.87;;;;;;;2.27;62.79;99680.19;5093165;28;40375;-76
2021/03/18 00:33:38;;;;;;;3.93;3.13;;;;;;;2.17;63.02;99662.94;5109908;28;41892;-75
2021/03/18 00:36:06;;;;;;;4.57;2.70;;;;;;;2.18;62.82;99669.91;5093016;28;42562;-76
2021/03/18 00:38:34;;;;;;;5.13;2.80;;;;;;;2.12;63.10;99672.59;5109917;28;41425;-75
2021/03/18 00:41:06;;;;;;;5.40;3.03;;;;;;;2.11;63.91;99670.84;5109683;28;40335;-75
2021/03/18 00:43:33;;;;;;;4.97;3.50;;;;;;;2.08;64.15;99670.94;5092737;28;41606;-76
2021/03/18 00:46:00;;;;;;;5.77;3.60;;;;;;;2.07;65.53;99654.38;5092876;28;42065;-76
2021/03/18 00:48:30;;;;;;;4.67;3.40;;;;;;;2.11;65.09;99660.41;5108502;28;42478;-76
2021/03/18 00:50:59;;;;;;;5.70;3.13;;;;;;;2.13;65.02;99656.03;5111346;27;39748;-75
2021/03/18 00:53:31;;;;;;;6.83;3.57;;;;;;;2.15;65.09;99659.47;5111731;28;41945;-76
2021/03/18 00:56:00;;;;;;;6.53;3.53;;;;;;;2.17;66.00;99657.72;5113085;28;43565;-74
2021/03/18 00:58:27;;;;;;;9.63;3.53;;;;;;;2.19;65.80;99650.72;5096232;28;42390;-75
2021/03/18 01:00:57;;;;;;;6.07;3.50;;;;;;;2.24;66.10;99654.09;5112890;28;40059;-75
2021/03/18 01:03:26;;;;;;;4.23;3.00;;;;;;;2.19;65.80;99640.25;5113948;27;42179;-76
2021/03/18 01:05:57;;;;;;;5.73;3.50;;;;;;;2.35;65.30;99657.41;5113128;28;42365;-76
2021/03/18 01:08:26;;;;;;;5.07;3.37;;;;;;;2.40;65.52;99660.81;5112590;28;42198;-75
2021/03/18 01:10:57;;;;;;;8.70;4.07;;;;;;;2.43;65.41;99658.16;5095998;28;39865;-75
2021/03/18 01:13:26;;;;;;;7.40;3.40;;;;;;;2.43;65.07;99644.22;5112562;28;41635;-76
2021/03/18 01:15:56;;;;;;;4.80;3.60;;;;;;;2.48;64.84;99653.69;5112985;28;41938;-75
2021/03/18 01:18:26;;;;;;;6.60;3.80;;;;;;;2.52;64.55;99658.00;5095855;28;41178;-75
2021/03/18 01:20:54;;;;;;;4.83;3.63;;;;;;;2.57;64.52;99667.50;5113103;28;39705;-75
2021/03/18 01:23:21;;;;;;;6.97;3.47;;;;;;;2.59;64.91;99660.50;5095924;28;40790;-75
2021/03/18 01:25:49;;;;;;;6.93;3.80;;;;;;;2.61;65.04;99654.34;5114188;27;43481;-75
2021/03/18 01:28:16;;;;;;;5.47;3.43;;;;;;;2.65;64.58;99665.63;5095790;28;41389;-75
2021/03/18 01:30:44;;;;;;;6.37;3.27;;;;;;;2.54;64.11;99647.50;5113057;28;39249;-75
2021/03/18 01:33:11;;;;;;;3.93;3.23;;;;;;;2.58;64.10;99658.78;5114020;27;42343;-74
2021/03/18 01:35:38;;;;;;;4.30;3.17;;;;;;;2.52;63.98;99660.59;5095874;28;42656;-76
2021/03/18 01:38:05;;;;;;;6.07;3.23;;;;;;;2.49;63.81;99665.88;5113692;27;42694;-75
2021/03/18 01:40:34;;;;;;;5.17;2.97;;;;;;;2.45;63.79;99674.69;5147272;27;40742;-74
2021/03/18 01:43:01;;;;;;;3.27;2.97;;;;;;;2.29;63.83;99644.44;5112590;28;40848;-75
2021/03/18 01:45:28;;;;;;;7.50;3.30;;;;;;;2.12;63.99;99617.72;5112794;28;41782;-75
2021/03/18 01:47:57;;;;;;;5.67;3.63;;;;;;;2.42;63.97;99668.63;5095173;28;41168;-74
2021/03/18 01:50:27;;;;;;;6.20;3.70;;;;;;;2.31;64.25;99640.06;5095601;28;38902;-75
2021/03/18 01:52:55;;;;;;;4.97;3.20;;;;;;;2.43;64.08;99658.16;5095157;28;42170;-75
2021/03/18 01:55:27;;;;;;;3.57;3.23;;;;;;;2.30;63.96;99634.84;5112157;28;41696;-75
2021/03/18 01:57:54;;;;;;;3.50;3.20;;;;;;;2.42;63.86;99659.03;5111903;28;43064;-74
2021/03/18 02:00:23;;;;;;;4.97;2.63;;;;;;;2.37;63.81;99655.63;5112279;28;40897;-74
2021/03/18 02:02:51;;;;;;;6.20;3.30;;;;;;;2.23;63.78;99646.28;5111761;28;42329;-75
2021/03/18 02:05:19;;;;;;;5.77;3.00;;;;;;;2.05;64.03;99632.66;5112331;28;43464;-74
2021/03/18 02:07:48;;;;;;;3.80;3.10;;;;;;;2.11;63.97;99655.19;5094961;28;41516;-73
2021/03/18 02:10:15;;;;;;;7.70;3.30;;;;;;;2.05;64.15;99652.69;5112893;27;39629;-74
2021/03/18 02:12:42;;;;;;;5.80;4.00;;;;;;;1.99;64.35;99663.22;5113511;27;41580;-75
2021/03/18 02:15:11;;;;;;;3.43;3.13;;;;;;;1.79;64.30;99638.25;5111699;28;42636;-75
2021/03/18 02:17:49;;;;;;;4.90;3.13;;;;;;;1.87;64.28;99663.38;5095164;28;42603;-75
2021/03/18 02:20:46;;;;;;;5.37;3.07;;;;;;;1.80;64.56;99663.50;5113554;27;39970;-75
2021/03/18 02:23:54;;;;;;;4.37;3.67;;;;;;;1.76;64.41;99658.31;5111824;28;42022;-73
2021/03/18 02:26:49;;;;;;;3.73;3.20;;;;;;;1.70;64.48;99656.69;5112337;28;42726;-74
2021/03/18 02:29:51;;;;;;;5.03;3.00;;;;;;;1.69;64.69;99664.53;5060879;28;42217;-74
2021/03/18 02:32:30;;;;;;;3.87;3.17;;;;;;;1.67;64.41;99656.72;5113455;27;40699;-74
2021/03/18 02:35:24;;;;;;;6.53;3.20;;;;;;;1.66;64.91;99664.56;5111825;28;40852;-75
2021/03/18 02:38:00;;;;;;;4.87;3.53;;;;;;;1.60;64.54;99654.22;5111868;28;41691;-74
2021/03/18 02:40:31;;;;;;;4.17;3.30;;;;;;;1.66;64.62;99664.56;5094705;28;41371;-75
2021/03/18 02:43:02;;;;;;;5.30;3.67;;;;;;;1.71;64.67;99668.84;5111530;28;39219;-74
2021/03/18 02:45:33;;;;;;;5.40;3.30;;;;;;;1.76;64.69;99669.63;5111653;28;42194;-74
2021/03/18 02:48:03;;;;;;;3.80;3.40;;;;;;;1.81;64.65;99669.59;5111744;28;42061;-75
2021/03/18 02:50:34;;;;;;;6.73;3.50;;;;;;;1.87;64.62;99668.63;5112470;27;42383;-75
2021/03/18 02:53:02;;;;;;;5.93;3.00;;;;;;;1.92;64.64;99669.41;5113146;27;41661;-74
2021/03/18 02:55:32;;;;;;;3.27;2.97;;;;;;;1.98;64.82;99666.75;5111184;28;42538;-74
2021/03/18 02:58:01;;;;;;;4.73;3.63;;;;;;;1.98;64.54;99667.56;5094057;28;42137;-74
2021/03/18 03:00:28;;;;;;;3.30;3.00;;;;;;;2.07;64.81;99671.81;5112588;27;42398;-74
2021/03/18 03:02:56;;;;;;;5.20;3.90;;;;;;;2.10;64.66;99672.59;5094401;28;39811;-74
2021/03/18 03:05:26;;;;;;;5.23;2.90;;;;;;;2.13;64.17;99667.34;5094565;28;41590;-75
2021/03/18 03:07:54;;;;;;;4.27;3.13;;;;;;;1.82;64.24;99597.31;5112099;27;44422;-76
2021/03/18 03:10:22;;;;;;;3.30;2.93;;;;;;;2.05;63.95;99634.41;5112137;27;42374;-74
2021/03/18 03:12:50;;;;;;;3.90;3.53;;;;;;;2.35;63.84;99678.31;5094242;28;39200;-75
2021/03/18 03:15:19;;;;;;;3.93;3.33;;;;;;;2.38;63.97;99675.66;5110496;27;40597;-74
2021/03/18 03:17:47;;;;;;;5.63;3.50;;;;;;;2.42;64.11;99682.56;5110449;28;42801;-74
2021/03/18 03:20:17;;;;;;;5.00;3.93;;;;;;;2.45;64.45;99674.69;5094030;28;41175;-75
2021/03/18 03:22:46;;;;;;;5.20;3.47;;;;;;;2.49;63.88;99676.34;5110649;28;39832;-77
2021/03/18 03:25:16;;;;;;;4.87;3.80;;;;;;;2.50;63.84;99678.06;5094120;28;40721;-75
2021/03/18 03:27:45;;;;;;;4.30;3.07;;;;;;;2.53;64.01;99678.03;5112037;27;42566;-74
2021/03/18 03:30:14;;;;;;;4.10;2.60;;;;;;;2.51;63.62;99669.34;5112279;27;42255;-74
2021/03/18 03:32:42;;;;;;;5.23;3.03;;;;;;;2.44;63.42;99657.28;5110593;28;39865;-76
2021/03/18 03:35:10;;;;;;;4.80;3.10;;;;;;;2.57;63.52;99678.84;5093913;28;40664;-76
2021/03/18 03:37:39;;;;;;;4.10;3.07;;;;;;;2.62;63.69;99679.59;5110258;28;43470;-75
2021/03/18 03:40:08;;;;;;;4.20;3.00;;;;;;;2.60;63.44;99675.31;5109944;28;42984;-73
2021/03/18 03:42:37;;;;;;;4.57;3.03;;;;;;;2.65;63.22;99681.31;5110431;28;40828;-75
2021/03/18 03:45:05;;;;;;;4.80;2.67;;;;;;;2.67;63.46;99684.75;5110226;28;41752;-74
2021/03/18 03:47:32;;;;;;;4.37;2.93;;;;;;;2.67;63.30;99675.16;5110299;28;43301;-75
2021/03/18 03:49:59;;;;;;;6.80;3.07;;;;;;;2.67;63.33;99674.31;5111462;27;42098;-76
2021/03/18 03:52:31;;;;;;;5.70;3.00;;;;;;;2.65;63.16;99673.47;5111038;28;38988;-77
2021/03/18 03:55:04;;;;;;;7.30;3.60;;;;;;;2.66;63.09;99677.81;5110688;28;40607;-73
2021/03/18 03:57:36;;;;;;;4.63;2.67;;;;;;;2.67;63.42;99669.06;5093870;28;41654;-76
2021/03/18 04:00:07;;;;;;;4.70;2.93;;;;;;;2.62;63.45;99666.53;5110412;28;42090;-75
2021/03/18 04:02:35;;;;;;;3.80;2.80;;;;;;;2.64;63.38;99670.00;5110274;28;40720;-74
2021/03/18 04:05:05;;;;;;;7.33;5.37;;;;;;;2.67;63.36;99674.31;5109023;28;42445;-75
2021/03/18 04:07:36;;;;;;;5.17;3.47;;;;;;;2.68;63.37;99676.03;5109833;28;42675;-75
2021/03/18 04:10:05;;;;;;;6.27;3.67;;;;;;;2.42;63.04;99632.91;5108930;28;42955;-75
2021/03/18 04:12:37;;;;;;;3.20;2.90;;;;;;;2.70;63.46;99669.03;5111775;27;39606;-76
2021/03/18 04:15:08;;;;;;;4.83;3.67;;;;;;;2.66;63.06;99668.22;5109577;28;41766;-76
2021/03/18 04:17:38;;;;;;;5.27;3.17;;;;;;;2.71;63.26;99676.00;5110382;28;42920;-76
2021/03/18 04:20:11;;;;;;;6.27;3.10;;;;;;;2.69;63.11;99667.31;5109696;28;42158;-77
2021/03/18 04:22:41;;;;;;;5.90;3.77;;;;;;;2.69;63.19;99662.06;5093668;28;38918;-77
2021/03/18 04:25:12;;;;;;;5.47;3.20;;;;;;;2.71;63.17;99665.53;5109896;28;41263;-75
2021/03/18 04:27:40;;;;;;;5.43;2.80;;;;;;;2.66;63.04;99656.88;5109387;27;42773;-75
2021/03/18 04:30:14;;;;;;;4.00;3.17;;;;;;;2.74;62.94;99666.31;5109136;28;42332;-74
2021/03/18 04:32:43;;;;;;;3.60;3.27;;;;;;;2.70;62.92;99661.19;5111687;27;41387;-76
2021/03/18 04:35:12;;;;;;;4.70;2.97;;;;;;;2.77;63.01;99668.00;5110066;28;40972;-76
2021/03/18 04:37:40;;;;;;;4.07;3.00;;;;;;;2.77;62.59;99666.25;5110045;28;42711;-76
2021/03/18 04:40:11;;;;;;;4.67;2.93;;;;;;;2.78;62.79;99669.75;5109686;28;42086;-75
2021/03/18 04:42:39;;;;;;;4.73;3.10;;;;;;;2.77;62.72;99671.50;5111273;27;40652;-75
2021/03/18 04:45:08;;;;;;;4.57;3.40;;;;;;;2.77;62.52;99674.09;5144237;27;42349;-75
2021/03/18 04:47:39;;;;;;;4.77;3.67;;;;;;;2.74;62.60;99666.31;5110979;27;42705;-76
2021/03/18 04:50:07;;;;;;;3.83;3.07;;;;;;;2.75;62.48;99673.28;5109629;28;42060;-74
2021/03/18 04:52:34;;;;;;;5.23;4.10;;;;;;;2.80;62.66;99670.59;5109560;28;40753;-76
2021/03/18 04:55:01;;;;;;;5.50;3.20;;;;;;;2.77;62.59;99665.41;5110548;27;42279;-76
2021/03/18 04:57:30;;;;;;;5.50;2.70;;;;;;;2.79;62.74;99668.84;5109780;28;42500;-76
2021/03/18 04:59:57;;;;;;;5.03;2.60;;;;;;;2.81;62.83;99667.06;5110717;27;42230;-74
2021/03/18 05:02:27;;;;;;;4.07;2.73;;;;;;;2.80;62.89;99670.59;5111181;27;39831;-74
2021/03/18 05:04:55;;;;;;;3.67;3.37;;;;;;;2.72;63.01;99646.34;5110446;27;42426;-75
2021/03/18 05:07:24;;;;;;;3.93;3.10;;;;;;;2.78;63.18;99662.75;5111100;27;42412;-75
2021/03/18 05:09:52;;;;;;;5.50;3.07;;;;;;;2.70;63.22;99648.97;5110184;27;42637;-76
2021/03/18 05:12:19;;;;;;;4.97;2.83;;;;;;;2.66;62.95;99641.19;5092603;28;39036;-74
2021/03/18 05:14:47;;;;;;;5.17;3.30;;;;;;;2.64;63.54;99649.06;5092386;28;41495;-76
2021/03/18 05:17:16;;;;;;;3.97;3.00;;;;;;;2.59;63.82;99657.91;5109510;28;42022;-74
2021/03/18 05:19:44;;;;;;;5.23;3.33;;;;;;;2.41;63.84;99646.00;5110082;27;42667;-75
2021/03/18 05:22:12;;;;;;;3.70;2.90;;;;;;;2.38;63.97;99654.75;5108842;28;40866;-75
2021/03/18 05:24:41;;;;;;;5.47;3.70;;;;;;;2.23;64.06;99644.53;5110523;27;41405;-74
2021/03/18 05:27:08;;;;;;;7.50;4.33;;;;;;;2.17;64.29;99655.09;5110693;27;42692;-74
2021/03/18 05:29:35;;;;;;;3.93;3.20;;;;;;;2.09;64.20;99649.16;5109139;28;41282;-74
2021/03/18 05:32:02;;;;;;;5.87;4.57;;;;;;;1.96;64.47;99652.81;5109497;28;39086;-75
2021/03/18 05:34:30;;;;;;;4.43;3.37;;;;;;;1.79;64.53;99635.66;5110349;27;41501;-74
2021/03/18 05:36:57;;;;;;;9.10;3.60;;;;;;;1.83;65.34;99646.06;5109037;28;43386;-75
2021/03/18 05:39:25;;;;;;;6.50;5.03;;;;;;;1.65;65.38;99632.38;5110897;27;42398;-75
2021/03/18 05:41:52;;;;;;;5.17;3.40;;;;;;;1.72;65.42;99657.53;5112627;28;39931;-75
2021/03/18 05:44:19;;;;;;;6.90;4.00;;;;;;;1.69;65.54;99648.88;5095252;28;40576;-76
2021/03/18 05:46:47;;;;;;;6.77;3.73;;;;;;;1.52;65.61;99636.03;5114104;27;42690;-75
2021/03/18 05:49:14;;;;;;;5.23;3.80;;;;;;;1.57;65.33;99641.22;5112795;27;42965;-74
2021/03/18 05:51:44;;;;;;;3.67;3.20;;;;;;;1.60;65.17;99656.84;5112736;28;40623;-76
2021/03/18 05:54:14;;;;;;;5.93;4.13;;;;;;;1.50;65.26;99648.25;5095336;28;41543;-76
2021/03/18 05:56:43;;;;;;;5.27;4.53;;;;;;;1.56;65.10;99658.63;5112608;27;43572;-76
2021/03/18 05:59:12;;;;;;;6.30;4.10;;;;;;;1.54;65.17;99660.38;5111869;28;42264;-76
2021/03/18 06:01:41;;;;;;;4.50;3.80;;;;;;;1.54;65.04;99660.38;5112449;28;39783;-76
2021/03/18 06:04:08;;;;;;;6.00;3.67;;;;;;;1.57;65.08;99655.13;5113323;27;41682;-75
2021/03/18 06:06:36;;;;;;;4.13;3.70;;;;;;;1.62;64.94;99663.72;5112104;28;42742;-76
2021/03/18 06:09:06;;;;;;;5.40;4.63;;;;;;;1.62;64.57;99647.19;5111049;28;41735;-76
2021/03/18 06:11:33;;;;;;;5.43;4.07;;;;;;;1.73;64.85;99667.06;5111108;28;41401;-75
2021/03/18 06:14:02;;;;;;;3.83;3.43;;;;;;;1.69;64.73;99654.09;5095155;28;41150;-75
2021/03/18 06:16:29;;;;;;;5.30;3.37;;;;;;;1.70;65.01;99651.47;5112461;28;42690;-76
2021/03/18 06:18:59;;;;;;;4.93;3.50;;;;;;;1.75;65.04;99661.81;5112899;27;42624;-72
2021/03/18 06:21:46;;;;;;;5.90;3.50;;;;;;;1.77;64.97;99666.13;5112918;27;39812;-74
2021/03/18 06:24:14;;;;;;;3.97;2.87;;;;;;;1.80;64.78;99668.72;5095072;28;41941;-73
2021/03/18 06:26:41;;;;;;;3.97;3.43;;;;;;;1.80;64.62;99653.06;5111824;28;43192;-75
2021/03/18 06:29:31;;;;;;;5.17;3.00;;;;;;;1.98;64.86;99666.75;5111725;28;42016;-76
2021/03/18 06:32:02;;;;;;;7.10;3.30;;;;;;;2.10;64.43;99663.94;5095443;28;39048;-77
2021/03/18 06:34:40;;;;;;;5.10;3.77;;;;;;;2.22;64.39;99661.13;5111341;28;41713;-75
2021/03/18 06:37:38;;;;;;;4.70;3.53;;;;;;;2.44;64.20;99662.50;5111661;28;43513;-74
2021/03/18 06:40:15;;;;;;;3.80;2.97;;;;;;;2.62;63.90;99671.75;5148772;27;42133;-75
2021/03/18 06:42:51;;;;;;;5.70;3.63;;;;;;;2.68;63.77;99655.13;5119292;28;40012;-77
2021/03/18 06:45:20;;;;;;;4.63;3.20;;;;;;;2.72;63.54;99651.56;5118744;28;42201;-78
2021/03/18 06:47:50;;;;;;;4.07;3.10;;;;;;;2.84;63.45;99667.03;5121929;27;43142;-74
2021/03/18 06:50:20;;;;;;;5.53;3.60;;;;;;;2.85;63.53;99664.34;5116724;27;42224;-76
2021/03/18 06:52:48;;;;;;;4.20;3.13;;;;;;;2.90;63.68;99672.13;5112755;27;40519;-75
2021/03/18 06:55:26;;;;;;;4.80;3.43;;;;;;;2.94;63.40;99668.56;5112964;27;42985;-77
2021/03/18 06:58:14;;;;;;;5.83;3.53;;;;;;;2.99;63.28;99676.31;5111641;28;43455;-74
2021/03/18 07:00:46;;;;;;;6.73;3.63;;;;;;;3.01;63.35;99674.53;5091353;28;41633;-78
2021/03/18 07:03:28;;;;;;;5.87;3.23;;;;;;;3.05;63.56;99671.00;5074453;28;40855;-75
2021/03/18 07:05:55;;;;;;;5.40;3.90;;;;;;;3.11;63.54;99671.72;5091378;28;41639;-77
2021/03/18 07:08:25;;;;;;;5.37;3.97;;;;;;;3.17;63.08;99671.63;5106040;28;43501;-74
2021/03/18 07:10:53;;;;;;;4.63;3.50;;;;;;;3.25;63.31;99674.94;5094688;28;41305;-77
2021/03/18 07:13:23;;;;;;;8.47;4.40;;;;;;;3.54;62.99;99666.50;5093820;28;39454;-76
2021/03/18 07:15:53;;;;;;;7.00;4.33;;;;;;;3.85;62.06;99679.78;5091300;28;41964;-77
2021/03/18 07:18:21;;;;;;;5.90;4.40;;;;;;;4.05;61.60;99678.47;5090605;28;43183;-77
2021/03/18 07:20:59;;;;;;;6.23;3.80;;;;;;;4.17;61.37;99659.84;5091130;28;41611;-76
2021/03/18 07:23:38;;;;;;;5.20;4.00;;;;;;;4.38;60.67;99671.56;5086819;28;39331;-75
2021/03/18 07:26:18;;;;;;;5.17;3.63;;;;;;;4.62;60.42;99676.19;5112676;27;41347;-78
2021/03/18 07:28:48;;;;;;;7.30;4.87;;;;;;;4.88;60.08;99683.41;5112653;27;43385;-77
2021/03/18 07:31:17;;;;;;;5.73;3.90;;;;;;;5.10;59.78;99674.03;5094485;28;42029;-76
2021/03/18 07:33:44;;;;;;;6.37;4.87;;;;;;;5.62;58.78;99672.56;5111272;28;39730;-77
2021/03/18 07:36:12;;;;;;;6.17;4.00;;;;;;;7.09;56.69;99685.38;5111574;28;40437;-75
2021/03/18 07:38:41;;;;;;;5.20;3.70;;;;;;;8.27;54.11;99707.28;5111783;28;43052;-78
2021/03/18 07:41:13;;;;;;;5.10;4.13;;;;;;;8.97;51.79;99708.84;5128184;27;42193;-76
2021/03/18 07:43:42;;;;;;;6.83;4.10;;;;;;;9.18;50.36;99714.97;5090786;28;40627;-79
2021/03/18 07:46:13;;;;;;;6.50;4.27;;;;;;;8.83;50.07;99713.84;5101706;28;42307;-79
2021/03/18 07:48:43;;;;;;;7.30;4.20;;;;;;;8.47;50.85;99682.75;5111274;28;42219;-78
2021/03/18 07:51:13;;;;;;;5.10;4.50;;;;;;;8.21;49.95;99654.75;5110369;28;42227;-76
2021/03/18 07:53:41;;;;;;;6.57;4.57;;;;;;;8.55;49.31;99716.75;5111158;28;40869;-76
2021/03/18 07:56:12;;;;;;;6.63;4.20;;;;;;;8.68;49.95;99710.03;5111320;28;40826;-79
2021/03/18 07:58:42;;;;;;;5.47;4.37;;;;;;;8.95;50.16;99702.75;5112094;27;42521;-77
2021/03/18 08:01:34;;;;;;;7.57;4.83;;;;;;;9.08;49.60;99698.69;5094043;28;42308;-76
2021/03/18 08:04:03;;;;;;;10.17;4.90;;;;;;;9.32;49.04;99688.81;5094050;28;38958;-78
2021/03/18 08:06:50;;;;;;;8.00;5.13;;;;;;;9.49;48.62;99696.88;5090507;28;40595;-79
2021/03/18 08:09:36;;;;;;;5.53;4.27;;;;;;;9.62;48.58;99686.59;5089565;28;42705;-79
2021/03/18 08:12:04;;;;;;;7.00;4.90;;;;;;;9.86;48.25;99689.91;5090954;28;41302;-78
2021/03/18 08:14:31;;;;;;;7.73;4.87;;;;;;;10.22;47.83;99693.50;5112091;27;39711;-80
2021/03/18 08:16:58;;;;;;;7.23;4.67;;;;;;;10.71;46.94;99691.13;5111872;27;40654;-76
2021/03/18 08:19:40;;;;;;;7.13;4.80;;;;;;;11.13;45.79;99693.38;5111670;27;42587;-77
2021/03/18 08:22:27;;;;;;;8.17;5.10;;;;;;;12.57;42.74;99712.06;5090042;28;41312;-79
2021/03/18 08:24:54;;;;;;;6.23;5.37;;;;;;;12.67;41.12;99719.50;5091381;28;40374;-78
2021/03/18 08:27:28;;;;;;;5.47;3.93;;;;;;;12.59;42.40;99702.22;5090413;28;42150;-81
2021/03/18 08:29:55;;;;;;;7.63;5.47;;;;;;;13.54;40.20;99725.88;5113227;27;42967;-78
2021/03/18 08:32:28;;;;;;;11.40;5.80;;;;;;;14.55;39.07;99721.28;5131310;27;42017;-80
2021/03/18 08:35:00;;;;;;;7.43;5.60;;;;;;;16.50;35.88;99726.47;5131321;27;39262;-77
2021/03/18 08:37:39;;;;;;;8.23;5.63;;;;;;;16.94;33.98;99757.16;5121637;27;40948;-78
2021/03/18 08:40:10;;;;;;;6.90;5.50;;;;;;;17.45;34.91;99739.81;5110656;28;43616;-77
2021/03/18 08:42:44;;;;;;;6.77;5.33;;;;;;;18.86;29.97;99781.34;5093324;28;42112;-79
2021/03/18 08:45:42;;;;;;;5.80;5.30;;;;;;;19.61;29.61;99775.94;5111618;27;40555;-81
2021/03/18 08:48:20;;;;;;;8.20;5.40;;;;;;;19.63;30.04;99755.16;5110001;28;42941;-81
2021/03/18 08:51:03;;;;;;;5.43;4.93;;;;;;;20.59;28.87;99753.94;5110657;28;42745;-79
2021/03/18 08:53:44;;;;;;;5.23;4.70;;;;;;;20.44;28.44;99773.16;5109924;28;42224;-79
2021/03/18 08:56:12;;;;;;;6.27;4.93;;;;;;;21.29;26.95;99777.19;5093648;28;40507;-78
2021/03/18 08:58:53;;;;;;;6.27;5.00;;;;;;;24.17;24.52;99788.31;5109802;28;41383;-78
2021/03/18 09:01:22;;;;;;;8.90;5.50;;;;;;;26.07;22.34;99797.50;5111682;27;42760;-79
2021/03/18 09:03:59;;;;;;;7.87;4.90;;;;;;;26.55;21.61;99789.44;5109588;28;42704;-77
2021/03/18 09:06:30;;;;;;;6.00;4.17;;;;;;;26.89;20.11;99797.25;5110327;28;38754;-79
2021/03/18 09:09:00;;;;;;;6.90;5.30;;;;;;;25.70;21.67;99783.63;5092802;28;41156;-81
2021/03/18 09:11:27;;;;;;;5.37;4.73;;;;;;;25.65;21.80;99759.72;5093277;28;41591;-79
2021/03/18 09:13:55;;;;;;;6.67;5.13;;;;;;;27.06;20.44;99780.72;5113233;27;42190;-76
2021/03/18 09:16:23;;;;;;;6.03;5.10;;;;;;;28.83;18.64;99783.88;5096859;28;38983;-80
2021/03/18 09:18:58;;;;;;;5.37;4.27;;;;;;;29.96;17.11;99803.16;5113548;28;42273;-79
2021/03/18 09:21:25;;;;;;;4.83;4.33;;;;;;;29.94;17.37;99780.63;5114762;27;42789;-80
2021/03/18 09:23:54;;;;;;;4.70;4.20;;;;;;;27.54;18.91;99774.09;5114997;27;42050;-77
2021/03/18 09:26:21;;;;;;;4.97;4.40;;;;;;;25.58;20.17;99771.38;5114874;27;40297;-77
2021/03/18 09:28:51;;;;;;;7.43;4.50;;;;;;;24.47;21.28;99699.50;5114159;27;41885;-77
2021/03/18 09:31:21;;;;;;;5.53;4.43;;;;;;;24.19;21.10;99747.56;5113412;28;42578;-78
2021/03/18 09:33:49;;;;;;;5.03;4.07;;;;;;;23.09;22.52;99737.25;5096005;28;41378;-79
2021/03/18 09:36:22;;;;;;;8.13;5.90;;;;;;;22.04;24.34;99719.75;5113335;28;41781;-83
2021/03/18 09:39:01;;;;;;;5.80;4.70;;;;;;;21.13;24.98;99719.31;5092736;28;42085;-81
2021/03/18 09:41:34;;;;;;;6.10;4.80;;;;;;;20.27;26.09;99701.16;5092839;28;42697;-81
2021/03/18 09:44:04;;;;;;;5.53;4.77;;;;;;;19.46;26.70;99693.91;5113696;28;41334;-79
2021/03/18 09:46:32;;;;;;;5.97;4.63;;;;;;;18.85;27.30;99693.75;5113303;28;39910;-78
2021/03/18 09:48:59;;;;;;;6.13;4.70;;;;;;;18.31;27.96;99678.47;5112855;28;40417;-79
2021/03/18 09:51:26;;;;;;;5.13;4.60;;;;;;;17.96;28.39;99683.16;5095909;28;41318;-81
2021/03/18 09:53:59;;;;;;;6.80;4.47;;;;;;;17.65;28.71;99673.16;5114031;27;42220;-79
2021/03/18 09:56:27;;;;;;;5.13;3.77;;;;;;;17.35;28.99;99677.22;5112953;28;39887;-77
2021/03/18 09:58:57;;;;;;;5.33;4.03;;;;;;;16.86;29.05;99635.47;5113582;27;42258;-84
2021/03/18 10:01:25;;;;;;;5.20;3.93;;;;;;;17.35;28.89;99623.66;5095074;28;41765;-78
2021/03/18 10:03:55;;;;;;;6.87;4.47;;;;;;;18.44;28.32;99646.16;5112480;28;42908;-77
2021/03/18 10:06:27;;;;;;;5.23;3.73;;;;;;;19.56;27.46;99657.25;5112945;28;39739;-75
2021/03/18 10:09:13;;;;;;;5.23;4.27;;;;;;;21.27;24.40;99690.25;5095157;28;40717;-80
2021/03/18 10:11:41;;;;;;;5.47;3.77;;;;;;;23.03;23.01;99688.34;5113914;27;42282;-80
2021/03/18 10:14:09;;;;;;;5.27;3.60;;;;;;;22.91;22.90;99685.91;5095344;28;40924;-80
2021/03/18 10:16:37;;;;;;;4.47;3.30;;;;;;;22.11;24.29;99680.41;5113765;27;39945;-79
2021/03/18 10:19:05;;;;;;;4.40;4.00;;;;;;;21.20;23.77;99684.59;5113764;27;42200;-77
2021/03/18 10:21:33;;;;;;;4.23;3.40;;;;;;;20.33;24.96;99671.00;5112663;28;43403;-77
2021/03/18 10:24:10;;;;;;;4.50;3.63;;;;;;;19.60;25.72;99673.97;5095738;27;41262;-78
2021/03/18 10:26:37;;;;;;;4.10;3.07;;;;;;;18.96;26.88;99656.09;5111933;28;40787;-78
2021/03/18 10:29:07;;;;;;;5.13;4.13;;;;;;;18.37;27.16;99660.19;5113414;27;42467;-79
2021/03/18 10:31:35;;;;;;;3.80;3.40;;;;;;;17.64;28.14;99644.66;5113621;27;43400;-75
2021/03/18 10:34:05;;;;;;;4.37;3.93;;;;;;;16.94;29.47;99636.75;5094672;28;41294;-79
2021/03/18 10:36:33;;;;;;;5.73;4.10;;;;;;;16.32;30.56;99626.22;5112485;28;40388;-80
2021/03/18 10:39:03;;;;;;;5.73;4.10;;;;;;;15.87;31.33;99619.72;5113273;27;42500;-79
2021/03/18 10:41:31;;;;;;;4.40;3.50;;;;;;;15.45;31.48;99617.28;5095238;28;42690;-75
2021/03/18 10:43:58;;;;;;;5.00;3.57;;;;;;;15.19;32.00;99612.94;5111638;28;41552;-77
2021/03/18 10:46:33;;;;;;;5.27;3.10;;;;;;;14.93;32.19;99606.72;5113328;27;39904;-77
2021/03/18 10:49:05;;;;;;;4.37;3.77;;;;;;;14.66;32.20;99603.25;5113315;27;41380;-77
2021/03/18 10:51:42;;;;;;;3.87;3.20;;;;;;;14.19;32.57;99534.47;5113389;27;43554;-77
2021/03/18 10:54:17;;;;;;;6.03;3.80;;;;;;;14.41;32.86;99569.41;5112879;27;42951;-75
2021/03/18 10:56:45;;;;;;;4.87;3.40;;;;;;;14.44;32.81;99582.53;5113357;27;40638;-79
2021/03/18 10:59:16;;;;;;;4.60;3.70;;;;;;;14.40;33.18;99575.69;5111768;28;42276;-77
2021/03/18 11:01:44;;;;;;;3.77;3.33;;;;;;;14.38;33.39;99566.91;5095283;28;42838;-76
2021/03/18 11:04:12;;;;;;;5.27;4.00;;;;;;;14.50;33.48;99575.91;5094101;28;42443;-78
2021/03/18 11:06:47;;;;;;;6.40;3.93;;;;;;;14.41;33.11;99561.41;5113172;27;39974;-77
2021/03/18 11:09:16;;;;;;;4.30;3.87;;;;;;;14.46;33.10;99569.97;5111588;28;41575;-77
2021/03/18 11:11:53;;;;;;;5.23;4.47;;;;;;;14.47;33.14;99568.13;5112797;27;42370;-77
2021/03/18 11:14:21;;;;;;;6.90;4.80;;;;;;;14.69;32.96;99571.94;5094325;28;42117;-77
2021/03/18 11:16:49;;;;;;;4.87;3.97;;;;;;;14.85;32.93;99552.19;5111882;28;40806;-77
2021/03/18 11:19:21;;;;;;;6.07;4.40;;;;;;;15.03;33.09;99558.94;5094492;28;40811;-76
2021/03/18 11:21:59;;;;;;;5.67;5.17;;;;;;;15.04;33.08;99555.31;5094697;28;41740;-77
2021/03/18 11:24:27;;;;;;;7.17;6.13;;;;;;;15.25;33.55;99561.81;5111327;28;42268;-76
2021/03/18 11:27:01;;;;;;;5.70;4.87;;;;;;;15.39;31.51;99567.03;5094973;28;38947;-77
2021/03/18 11:29:30;;;;;;;6.50;3.77;;;;;;;15.42;31.43;99566.81;5090942;28;41561;-77
2021/03/18 11:32:02;;;;;;;3.23;2.93;;;;;;;15.53;31.43;99573.19;5090702;28;42524;-78
2021/03/18 11:34:31;;;;;;;3.17;2.87;;;;;;;15.67;29.48;99579.28;5116770;27;41416;-76
2021/03/18 11:37:02;;;;;;;2.77;2.20;;;;;;;16.01;29.84;99574.16;5132670;27;39788;-77
2021/03/18 11:39:29;;;;;;;2.77;2.17;;;;;;;17.32;28.35;99577.53;5131436;27;41741;-77
2021/03/18 11:41:58;;;;;;;3.10;2.77;;;;;;;21.64;25.60;99575.25;5129727;27;42807;-78
2021/03/18 11:44:27;;;;;;;3.10;2.80;;;;;;;25.05;20.97;99602.75;5128464;27;42077;-77
2021/03/18 11:47:00;;;;;;;2.53;2.20;;;;;;;24.72;21.09;99617.28;5111157;28;39746;-76
2021/03/18 11:49:27;;;;;;;2.40;1.80;;;;;;;23.45;21.12;99616.41;5111779;27;41606;-78
2021/03/18 11:51:54;;;;;;;2.77;2.40;;;;;;;22.27;21.52;99609.56;5111970;27;42688;-77
2021/03/18 11:54:21;;;;;;;2.70;2.50;;;;;;;21.69;22.44;99610.72;5093668;28;41899;-78
2021/03/18 11:56:48;;;;;;;3.70;2.70;;;;;;;22.98;22.56;99588.88;5111247;28;40506;-79